Ravenna, Nebraska
Current Conditions -  °F | °C
As of 11:15 AM on Thursday 18 Dec 2014 (Local Time) from KEAR Reporting Station
Overcast Overcast  
Wind Chill: 20°   Ceiling: 2400
Heat Index: 27°   Visibility: 8mi
Dew Point: 23°   Wind: 6mph
Humidity: 86%   Direction: 180°S
Pressure: 30.18"   Gusts: NA
Location:  41.03°N, 98.91°W
Report Text: KEAR 181715Z 18005KT 8SM SCT006 OVC024 M03/M05 A3018 RMK AO1
Loading
Personal Weather Stations






























Interactive Weather Map New forecast layout! Learn more

10-Day Weather Forecast

Advertisements
Track Severe Weather on mobile